Impacts METAR Board
IDs:

KGTU - Georgetown Muni, TX, US

Updated at: 2300 UTC 29 May 2020
Potential Impact None Slight Moderate High
Time 29/11Z 29/12Z 29/13Z 29/14Z 29/15Z 29/16Z 29/17Z 29/18Z 29/19Z 29/20Z 29/21Z 29/22Z 29/23Z
Temp68 67 70 72 76 77 80 82 85 86 87 88 87
Dewpt65 64 65 64 64 64 64 63 62 59 57 58 57
Altim30.08 30.11 30.13 30.15 30.16 30.14 30.16 30.14 30.15 30.14 30.13 30.11 30.10
VIS10 10 10 10 10 10 10 10 10 10 10 10 10
CIG-- -- -- -- -- -- -- -- -- -- -- -- --
CoverCLRCLRCLRCLRCLRSCTSCTFEWCLRCLRCLRCLRCLR
FltCatVFRVFRVFRVFRVFRVFRVFRVFRVFRVFRVFRVFRVFR
WX--------------------------
WDir3203203401036020360303010506050
WSpd8 7 8 7 12 12 9 8 9 10 13 12 12
WGst-- -- -- -- -- -- -- -- -- 16 17 15 17
Raw hourly METARs
KGTU 291056Z AUTO 32008KT 10SM CLR 20/18 A3008 RMK AO2 SLP182 T02000183
KGTU 291156Z 32007KT 10SM CLR 19/18 A3011 RMK AO2 SLP192 T01940178 10217 20194 53012
KGTU 291256Z 34008KT 10SM CLR 21/18 A3013 RMK AO2 SLP198 T02110183
KGTU 291356Z 01007KT 10SM CLR 22/18 A3015 RMK AO2 SLP204 T02220178
KGTU 291456Z 36012KT 10SM CLR 24/18 A3016 RMK AO2 SLP206 T02440178 51015
KGTU 291556Z 02012KT 10SM SCT026 25/18 A3014 RMK AO2 SLP202 T02500178
KGTU 291656Z 36009KT 10SM SCT034 27/18 A3016 RMK AO2 SLP207 T02670178
KGTU 291756Z 03008KT 10SM FEW040 28/17 A3014 RMK AO2 SLP200 T02780172 10278 20194 58006
KGTU 291856Z 03009KT 10SM CLR 29/17 A3015 RMK AO2 SLP201 T02940167
KGTU 291956Z 01010G16KT 10SM CLR 30/15 A3014 RMK AO2 SLP200 T03000150
KGTU 292056Z 05013G17KT 10SM CLR 31/14 A3013 RMK AO2 SLP197 T03060139 58002
KGTU 292156Z 06012G15KT 10SM CLR 31/14 A3011 RMK AO2 SLP190 T03110144
KGTU 292256Z 05012G17KT 10SM CLR 31/14 A3010 RMK AO2 SLP186 T03060139